createdAt,value
2023-05-22T06:17:00.763Z,96747.72
2023-05-22T06:22:02.800Z,96748.34
2023-05-22T06:27:05.548Z,96749.88
2023-05-22T06:32:10.251Z,96746.03
2023-05-22T06:37:12.833Z,96747.78
2023-05-22T06:42:15.069Z,96752.75
2023-05-22T06:47:18.476Z,96756.38
2023-05-22T06:52:20.624Z,96757.81
2023-05-22T06:57:24.047Z,96755.81
2023-05-22T07:02:27.488Z,96757.00
2023-05-22T07:07:29.634Z,96745.38
2023-05-22T07:12:31.628Z,96736.28
2023-05-22T07:17:35.065Z,96748.72
2023-05-22T07:22:37.161Z,96749.78
2023-05-22T07:27:39.677Z,96742.78
2023-05-22T07:32:43.891Z,96733.53
2023-05-22T07:37:46.076Z,96742.69
2023-05-22T07:42:47.943Z,96749.88
2023-05-22T07:47:52.820Z,96746.66
2023-05-22T07:52:56.553Z,96739.06
2023-05-22T07:57:58.610Z,96745.50
2023-05-22T08:03:01.951Z,96749.97
2023-05-22T08:08:04.789Z,96735.84
2023-05-22T08:13:06.884Z,96735.84
2023-05-22T08:18:11.440Z,96739.03
2023-05-22T08:23:13.559Z,96734.28
2023-05-22T08:28:15.454Z,96742.00
2023-05-22T08:33:19.703Z,96737.81
2023-05-22T08:38:21.958Z,96726.53
2023-05-22T08:43:24.441Z,96728.81
2023-05-22T08:48:30.912Z,96734.66
2023-05-22T08:53:35.815Z,96734.97
2023-05-22T08:58:38.340Z,96722.59
2023-05-22T09:03:43.394Z,96726.19
2023-05-22T09:08:45.958Z,96722.91
2023-05-22T09:13:49.075Z,96716.94
2023-05-22T09:18:52.972Z,96715.94
2023-05-22T09:23:59.103Z,96710.00
2023-05-22T09:29:01.722Z,96705.25
2023-05-22T09:34:08.083Z,96712.88
2023-05-22T09:39:10.840Z,96715.41
2023-05-22T09:44:14.082Z,96700.91
2023-05-22T09:49:17.894Z,96702.81
2023-05-22T09:54:27.815Z,70918.97
2023-05-22T09:59:31.418Z,96692.28
2023-05-22T10:04:34.893Z,96696.50
2023-05-22T10:09:40.701Z,96696.16
2023-05-22T10:14:43.600Z,96703.00
2023-05-22T10:19:47.206Z,96701.25
2023-05-22T10:24:50.828Z,96701.22
2023-05-22T10:29:56.747Z,96704.78
2023-05-22T10:35:08.786Z,96702.72
2023-05-22T10:40:13.454Z,96701.63
2023-05-22T10:45:16.607Z,96704.06
2023-05-22T10:50:20.297Z,96695.66
2023-05-22T10:55:22.850Z,96705.66
2023-05-22T11:00:24.973Z,96690.34
2023-05-22T11:05:34.789Z,96694.09
2023-05-22T11:10:53.059Z,96679.81
2023-05-22T11:15:56.500Z,96680.22
2023-05-22T11:21:00.928Z,96686.72
2023-05-22T11:26:20.225Z,96677.34
2023-05-22T11:31:23.308Z,96674.81
2023-05-22T11:36:27.740Z,96674.81
2023-05-22T11:41:32.463Z,96679.28
2023-05-22T11:46:35.782Z,96676.44
2023-05-22T11:51:40.529Z,96672.75
2023-05-22T11:56:42.641Z,96675.69
2023-05-22T12:01:44.680Z,96673.78
2023-05-22T12:06:48.348Z,96672.41
2023-05-22T12:11:50.491Z,96661.75
2023-05-22T12:16:53.295Z,96670.75
2023-05-22T12:21:57.376Z,96668.41
2023-05-22T12:26:59.335Z,96666.88
2023-05-22T12:32:03.138Z,96671.28
2023-05-22T12:37:18.306Z,96661.81
2023-05-22T12:42:20.489Z,96662.53
2023-05-22T12:47:23.604Z,96655.50
2023-05-22T12:52:26.973Z,96658.59
2023-05-22T12:57:28.958Z,96646.81
2023-05-22T13:02:30.976Z,96650.97
2023-05-22T13:07:34.454Z,96655.03
2023-05-22T13:12:36.479Z,96651.47
2023-05-22T13:17:38.548Z,96646.44
2023-05-22T13:22:41.965Z,96654.34
2023-05-22T13:27:43.977Z,96650.22
2023-05-22T13:32:46.257Z,96647.94
2023-05-22T13:37:50.031Z,96639.16
2023-05-22T13:42:52.309Z,96638.47
2023-05-22T13:47:54.452Z,96634.91
2023-05-22T13:52:57.851Z,96629.78
2023-05-22T13:57:59.856Z,96625.22
2023-05-22T14:03:01.935Z,96621.09
2023-05-22T14:08:05.368Z,96628.50
2023-05-22T14:13:08.640Z,96625.97
2023-05-22T14:18:11.193Z,96622.47
2023-05-22T14:23:14.867Z,96619.38
2023-05-22T14:28:17.179Z,96606.72
2023-05-22T14:33:19.244Z,96609.25
2023-05-22T14:38:22.610Z,96593.19
2023-05-22T14:43:24.641Z,96599.09
2023-05-22T14:48:26.874Z,96596.28
2023-05-22T14:53:30.775Z,96596.50
2023-05-22T14:58:32.886Z,96597.13
2023-05-22T15:03:34.902Z,96595.31
2023-05-22T15:08:38.339Z,96596.66
2023-05-22T15:13:40.802Z,96602.50
2023-05-22T15:18:42.832Z,96589.44
2023-05-22T15:23:46.330Z,96590.44
2023-05-22T15:28:48.384Z,96585.00
2023-05-22T15:33:50.416Z,96584.94
2023-05-22T15:38:53.802Z,96579.88
2023-05-22T15:43:56.200Z,96576.75
2023-05-22T15:48:58.200Z,96566.00
2023-05-22T15:54:01.780Z,96568.56
2023-05-22T15:59:03.872Z,96566.53
2023-05-22T16:04:06.214Z,96557.63
2023-05-22T16:09:09.987Z,96551.19
2023-05-22T16:14:12.105Z,96554.78
2023-05-22T16:19:14.548Z,96550.97
2023-05-22T16:24:17.982Z,96552.53
2023-05-22T16:29:23.062Z,96551.78
2023-05-22T16:34:25.291Z,96557.91
2023-05-22T16:39:28.647Z,96549.06
2023-05-22T16:44:30.695Z,96558.91
2023-05-22T16:49:32.688Z,96553.59
2023-05-22T16:54:36.864Z,96549.97
2023-05-22T16:59:38.902Z,96564.25
2023-05-22T17:04:41.153Z,96567.84
2023-05-22T17:09:44.568Z,96571.28
2023-05-22T17:14:46.615Z,96567.44
2023-05-22T17:19:48.646Z,96568.28
2023-05-22T17:24:52.704Z,96560.63
2023-05-22T17:29:54.718Z,96572.06
2023-05-22T17:34:56.798Z,96571.09
2023-05-22T17:40:00.503Z,96561.38
2023-05-22T17:45:02.566Z,96563.34
2023-05-22T17:50:05.011Z,96568.69
2023-05-22T17:55:09.092Z,96562.88
2023-05-22T18:00:12.535Z,96556.41
2023-05-22T18:05:14.590Z,96552.69
2023-05-22T18:10:18.151Z,96553.50
2023-05-22T18:15:20.343Z,96549.03
2023-05-22T18:20:22.361Z,96542.00
2023-05-22T18:25:25.877Z,70918.97
2023-05-22T18:30:28.552Z,70918.97
2023-05-22T18:35:30.904Z,70918.97
2023-05-22T18:40:34.347Z,70918.97
2023-05-22T18:45:37.287Z,70918.97
2023-05-22T18:50:39.591Z,96524.19
2023-05-22T18:55:43.974Z,96524.72
2023-05-22T19:00:46.356Z,96526.22
2023-05-22T19:05:49.430Z,96520.91
2023-05-22T19:10:52.916Z,96520.06
2023-05-22T19:15:55.316Z,96522.28
2023-05-22T19:20:58.372Z,96519.72
2023-05-22T19:26:02.003Z,96527.97
2023-05-22T19:31:05.088Z,96529.44
2023-05-22T19:36:08.155Z,96520.75
2023-05-22T19:41:11.586Z,96519.94
2023-05-22T19:46:13.596Z,96515.59
2023-05-22T19:51:16.069Z,96506.97
2023-05-22T19:56:19.570Z,96499.38
2023-05-22T20:01:22.202Z,96502.91
2023-05-22T20:06:24.386Z,96500.53
2023-05-22T20:11:28.622Z,96501.94
2023-05-22T20:16:31.072Z,96500.34
2023-05-22T20:21:33.940Z,96489.00
2023-05-22T20:26:37.416Z,96489.00
2023-05-22T20:31:39.666Z,96489.00
2023-05-22T20:36:42.679Z,96489.00
2023-05-22T20:41:49.652Z,96489.00
2023-05-22T20:46:53.048Z,70918.97
2023-05-22T20:51:55.396Z,70918.97
2023-05-22T20:56:58.758Z,96489.00
2023-05-22T21:02:01.318Z,96496.34
2023-05-22T21:07:04.882Z,96496.34
2023-05-22T21:12:08.688Z,70918.97
2023-05-22T21:17:10.777Z,70918.97
2023-05-22T21:22:12.820Z,70918.97
2023-05-22T21:27:16.205Z,70918.97
2023-05-22T21:32:18.231Z,70918.97
2023-05-22T21:37:20.473Z,70918.97
2023-05-22T21:42:25.954Z,70918.97
2023-05-22T21:47:28.268Z,70918.97
2023-05-22T21:52:30.446Z,70918.97
2023-05-22T21:57:34.309Z,70918.97
2023-05-22T22:02:36.429Z,70918.97
2023-05-22T22:07:38.515Z,70918.97
2023-05-22T22:12:41.878Z,70918.97
2023-05-22T22:17:44.022Z,70918.97
2023-05-22T22:22:46.130Z,70918.97
2023-05-22T22:27:49.545Z,70918.97
2023-05-22T22:32:52.122Z,70918.97
2023-05-22T22:37:54.151Z,70918.97
2023-05-22T22:42:57.490Z,70918.97
2023-05-22T22:48:00.576Z,70918.97
2023-05-22T22:53:02.733Z,70918.97
2023-05-22T22:58:07.799Z,70918.97
2023-05-22T23:03:09.844Z,70918.97
2023-05-22T23:08:11.981Z,70918.97
2023-05-22T23:13:16.111Z,70918.97
2023-05-22T23:18:18.288Z,70918.97
2023-05-22T23:23:20.340Z,70918.97
2023-05-22T23:28:23.714Z,70918.97
2023-05-22T23:33:25.686Z,70918.97
2023-05-22T23:38:27.888Z,70918.97
2023-05-22T23:43:31.218Z,70918.97
2023-05-22T23:48:33.208Z,70918.97
2023-05-22T23:53:35.709Z,70918.97
2023-05-22T23:58:39.082Z,70918.97
